createdAt,value
2018-06-04T00:00:51.008Z,0
2018-06-04T00:01:51.591Z,0
2018-06-04T00:02:52.167Z,0
2018-06-04T00:03:52.741Z,0
2018-06-04T00:04:53.317Z,0
2018-06-04T00:05:53.893Z,0
2018-06-04T00:06:54.469Z,0
2018-06-04T00:07:55.056Z,0
2018-06-04T00:08:55.630Z,0
2018-06-04T00:09:56.207Z,0
2018-06-04T00:10:56.781Z,0
2018-06-04T00:11:57.358Z,0
2018-06-04T00:12:57.932Z,0
2018-06-04T00:13:58.510Z,0
2018-06-04T00:14:59.095Z,0
2018-06-04T00:15:59.672Z,0
2018-06-04T00:17:00.253Z,0
2018-06-04T00:18:00.839Z,0
2018-06-04T00:19:01.413Z,0
2018-06-04T00:20:01.989Z,0
2018-06-04T00:21:02.563Z,0
2018-06-04T00:22:03.140Z,0
2018-06-04T00:23:03.715Z,0
2018-06-04T00:24:04.287Z,0
2018-06-04T00:25:04.865Z,0
2018-06-04T00:26:05.449Z,0
2018-06-04T00:27:06.030Z,0
2018-06-04T00:28:06.601Z,0
2018-06-04T00:29:07.175Z,0
2018-06-04T00:30:07.753Z,0
2018-06-04T00:31:08.325Z,0
2018-06-04T00:32:08.901Z,0
2018-06-04T00:33:09.472Z,0
2018-06-04T00:34:10.057Z,0
2018-06-04T00:35:10.631Z,0
2018-06-04T00:36:11.207Z,0
2018-06-04T00:37:11.781Z,0
2018-06-04T00:38:12.354Z,0
2018-06-04T00:39:12.928Z,0
2018-06-04T00:40:13.507Z,0
2018-06-04T00:41:14.077Z,0
2018-06-04T00:42:14.655Z,0
2018-06-04T00:43:15.224Z,0
2018-06-04T00:44:15.809Z,0
2018-06-04T00:45:16.385Z,0
2018-06-04T00:46:16.959Z,0
2018-06-04T00:47:17.550Z,0
2018-06-04T00:48:18.130Z,0
2018-06-04T00:49:18.706Z,0
2018-06-04T00:50:19.283Z,0
2018-06-04T00:51:19.853Z,0
2018-06-04T00:52:20.428Z,0
2018-06-04T00:53:21.001Z,0
2018-06-04T00:54:21.576Z,0
2018-06-04T00:55:22.153Z,0
2018-06-04T00:56:22.729Z,0
2018-06-04T00:57:23.304Z,0
2018-06-04T00:58:23.878Z,0
2018-06-04T00:59:24.460Z,0
2018-06-04T01:00:25.041Z,0
2018-06-04T01:01:25.617Z,0
2018-06-04T01:02:26.193Z,0
2018-06-04T01:03:26.766Z,0
2018-06-04T01:04:27.342Z,0
2018-06-04T01:05:27.916Z,0
2018-06-04T01:06:28.491Z,0
2018-06-04T01:07:29.065Z,0
2018-06-04T01:08:29.638Z,0
2018-06-04T01:09:30.213Z,0
2018-06-04T01:10:30.788Z,0
2018-06-04T01:11:31.361Z,0
2018-06-04T01:12:31.936Z,0
2018-06-04T01:13:32.513Z,0
2018-06-04T01:14:33.086Z,0
2018-06-04T01:15:33.661Z,0
2018-06-04T01:16:34.247Z,0
2018-06-04T01:17:34.823Z,0
2018-06-04T01:18:35.397Z,0
2018-06-04T01:19:35.971Z,0
2018-06-04T01:20:36.548Z,0
2018-06-04T01:21:37.122Z,0
2018-06-04T01:22:37.697Z,0
2018-06-04T01:23:38.271Z,0
2018-06-04T01:24:38.848Z,0
2018-06-04T01:25:39.422Z,0
2018-06-04T01:26:39.997Z,0
2018-06-04T01:27:40.572Z,0
2018-06-04T01:28:41.159Z,0
2018-06-04T01:29:41.744Z,0
2018-06-04T01:30:42.321Z,0
2018-06-04T01:31:42.897Z,0
2018-06-04T01:32:43.472Z,0
2018-06-04T01:33:44.047Z,0
2018-06-04T01:34:44.624Z,0
2018-06-04T01:35:45.209Z,0
2018-06-04T01:36:45.796Z,0
2018-06-04T01:37:46.404Z,0
2018-06-04T01:38:46.943Z,0
2018-06-04T01:39:47.528Z,0
2018-06-04T01:40:48.096Z,0
2018-06-04T01:41:48.672Z,0
2018-06-04T01:42:49.252Z,0
2018-06-04T01:43:49.839Z,0
2018-06-04T01:44:50.413Z,0
2018-06-04T01:45:50.990Z,0
2018-06-04T01:46:51.564Z,0
2018-06-04T01:47:52.137Z,0
2018-06-04T01:48:52.713Z,0
2018-06-04T01:49:53.287Z,0
2018-06-04T01:50:53.865Z,0
2018-06-04T01:51:54.440Z,0
2018-06-04T01:52:55.017Z,0
2018-06-04T01:53:55.601Z,0
2018-06-04T01:54:56.178Z,0
2018-06-04T01:55:56.753Z,0
2018-06-04T01:56:57.329Z,0
2018-06-04T01:57:57.906Z,0
2018-06-04T01:58:58.481Z,0
2018-06-04T01:59:59.055Z,0
2018-06-04T02:00:59.634Z,0
2018-06-04T02:02:00.205Z,0
2018-06-04T02:03:00.782Z,0
2018-06-04T02:04:01.358Z,0
2018-06-04T02:05:01.936Z,0
2018-06-04T02:06:02.509Z,0
2018-06-04T02:07:03.084Z,0
2018-06-04T02:08:03.657Z,0
2018-06-04T02:09:04.230Z,0
2018-06-04T02:10:04.804Z,0
2018-06-04T02:11:05.382Z,0
2018-06-04T02:12:05.951Z,0
2018-06-04T02:13:06.525Z,0
2018-06-04T02:14:07.100Z,0
2018-06-04T02:15:07.676Z,0
2018-06-04T02:16:08.254Z,0
2018-06-04T02:17:08.839Z,0
2018-06-04T02:18:09.413Z,0
2018-06-04T02:19:09.995Z,0
2018-06-04T02:20:10.577Z,0
2018-06-04T02:21:11.143Z,0
2018-06-04T02:22:11.718Z,0
2018-06-04T02:23:12.292Z,0
2018-06-04T02:24:12.867Z,0
2018-06-04T02:25:13.441Z,0
2018-06-04T02:26:14.016Z,0
2018-06-04T02:27:14.604Z,0
2018-06-04T02:28:15.190Z,0
2018-06-04T02:29:15.761Z,0
2018-06-04T02:30:16.348Z,0
2018-06-04T02:31:16.920Z,0
2018-06-04T02:32:17.495Z,0
2018-06-04T02:33:18.070Z,0
2018-06-04T02:34:18.655Z,0
2018-06-04T02:35:19.234Z,0
2018-06-04T02:36:19.813Z,0
2018-06-04T02:37:20.400Z,0
2018-06-04T02:38:20.971Z,0
2018-06-04T02:39:21.547Z,0
2018-06-04T02:40:22.124Z,0
2018-06-04T02:41:22.711Z,0
2018-06-04T02:42:23.298Z,0
2018-06-04T02:43:23.873Z,0
2018-06-04T02:44:24.450Z,0
2018-06-04T02:45:25.026Z,0
2018-06-04T02:46:25.597Z,0
2018-06-04T02:47:26.181Z,0
2018-06-04T02:48:26.754Z,4
2018-06-04T02:49:27.329Z,0
2018-06-04T02:50:27.907Z,0
2018-06-04T02:51:28.480Z,0
2018-06-04T02:52:29.055Z,4
2018-06-04T02:53:29.630Z,4
2018-06-04T02:54:30.209Z,0
2018-06-04T02:55:30.782Z,0
2018-06-04T02:56:31.356Z,4
2018-06-04T02:57:31.930Z,0
2018-06-04T02:58:32.504Z,4
2018-06-04T02:59:33.080Z,4
2018-06-04T03:00:33.652Z,4
2018-06-04T03:01:34.232Z,4
2018-06-04T03:02:34.811Z,4
2018-06-04T03:03:35.385Z,4
2018-06-04T03:04:35.972Z,4
2018-06-04T03:05:36.550Z,8
2018-06-04T03:06:37.135Z,4
2018-06-04T03:07:37.721Z,4
2018-06-04T03:08:38.296Z,8
2018-06-04T03:09:38.870Z,8
2018-06-04T03:10:39.444Z,12
2018-06-04T03:11:40.022Z,8
2018-06-04T03:12:40.593Z,8
2018-06-04T03:13:41.169Z,8
2018-06-04T03:14:41.757Z,12
2018-06-04T03:15:42.339Z,12
2018-06-04T03:16:42.921Z,12
2018-06-04T03:17:43.495Z,12
2018-06-04T03:18:44.072Z,16
2018-06-04T03:19:44.657Z,16
2018-06-04T03:20:45.231Z,16
2018-06-04T03:21:45.812Z,20
2018-06-04T03:22:46.383Z,20
2018-06-04T03:23:46.959Z,24
2018-06-04T03:24:47.538Z,24
2018-06-04T03:25:48.114Z,28
2018-06-04T03:26:48.702Z,24
2018-06-04T03:27:49.278Z,28
2018-06-04T03:28:49.858Z,32
2018-06-04T03:29:50.429Z,32
2018-06-04T03:30:51.010Z,32
2018-06-04T03:31:51.592Z,36
2018-06-04T03:32:52.166Z,36
2018-06-04T03:33:52.743Z,40
2018-06-04T03:34:53.370Z,40
2018-06-04T03:35:53.895Z,40
2018-06-04T03:36:54.471Z,44
2018-06-04T03:37:55.050Z,48
2018-06-04T03:38:55.636Z,48
2018-06-04T03:39:56.212Z,52
2018-06-04T03:40:56.797Z,52
2018-06-04T03:41:57.375Z,52
2018-06-04T03:42:57.950Z,56
2018-06-04T03:43:58.528Z,56
2018-06-04T03:44:59.120Z,64
2018-06-04T03:45:59.695Z,64
2018-06-04T03:47:00.270Z,68
2018-06-04T03:48:00.850Z,68
2018-06-04T03:49:01.423Z,68
2018-06-04T03:50:02.000Z,72
2018-06-04T03:51:02.575Z,76
2018-06-04T03:52:03.161Z,76
2018-06-04T03:53:03.726Z,80
2018-06-04T03:54:04.306Z,84
2018-06-04T03:55:04.878Z,84
2018-06-04T03:56:05.454Z,84
2018-06-04T03:57:06.031Z,88
2018-06-04T03:58:06.604Z,92
2018-06-04T03:59:07.180Z,96
2018-06-04T04:00:07.756Z,100
2018-06-04T04:01:08.336Z,100
2018-06-04T04:02:08.910Z,104
2018-06-04T04:03:09.487Z,104
2018-06-04T04:04:10.065Z,108
2018-06-04T04:05:10.640Z,108
2018-06-04T04:06:11.216Z,112
2018-06-04T04:07:11.795Z,116
2018-06-04T04:08:12.402Z,116
2018-06-04T04:09:12.958Z,120
2018-06-04T04:10:13.537Z,124
2018-06-04T04:11:14.113Z,128
2018-06-04T04:12:14.688Z,128
2018-06-04T04:13:15.265Z,132
2018-06-04T04:14:15.841Z,132
2018-06-04T04:15:16.418Z,136
2018-06-04T04:16:16.995Z,140
2018-06-04T04:17:17.573Z,140
2018-06-04T04:18:18.147Z,144
2018-06-04T04:19:18.730Z,148
2018-06-04T04:20:19.310Z,152
2018-06-04T04:21:19.886Z,152
2018-06-04T04:22:20.465Z,156
2018-06-04T04:23:21.044Z,160
2018-06-04T04:24:21.632Z,164
2018-06-04T04:25:22.217Z,164
2018-06-04T04:26:22.795Z,168
2018-06-04T04:27:23.373Z,172
2018-06-04T04:28:23.950Z,176
2018-06-04T04:29:24.527Z,172
2018-06-04T04:30:25.102Z,180
2018-06-04T04:31:25.680Z,180
2018-06-04T04:32:26.266Z,184
2018-06-04T04:33:26.845Z,188
2018-06-04T04:34:27.424Z,192
2018-06-04T04:35:28.011Z,192
2018-06-04T04:36:28.591Z,192
2018-06-04T04:37:29.168Z,196
2018-06-04T04:38:29.746Z,200
2018-06-04T04:39:30.325Z,204
2018-06-04T04:40:30.904Z,204
2018-06-04T04:41:31.481Z,208
2018-06-04T04:42:32.061Z,212
2018-06-04T04:43:32.651Z,216
2018-06-04T04:44:33.227Z,216
2018-06-04T04:45:33.815Z,220
2018-06-04T04:46:34.404Z,224
2018-06-04T04:47:34.992Z,224
2018-06-04T04:48:35.580Z,232
2018-06-04T04:49:36.168Z,232
2018-06-04T04:50:36.748Z,232
2018-06-04T04:51:37.325Z,236
2018-06-04T04:52:37.905Z,240
2018-06-04T04:53:38.484Z,240
2018-06-04T04:54:39.063Z,244
2018-06-04T04:55:39.654Z,248
2018-06-04T04:56:40.230Z,252
2018-06-04T04:57:40.809Z,252
2018-06-04T04:58:41.389Z,256
2018-06-04T04:59:41.991Z,256
2018-06-04T05:00:42.559Z,260
2018-06-04T05:01:43.137Z,264
2018-06-04T05:02:43.717Z,268
2018-06-04T05:03:44.297Z,268
2018-06-04T05:04:44.875Z,276
2018-06-04T05:05:45.455Z,276
2018-06-04T05:06:46.034Z,276
2018-06-04T05:07:46.612Z,280
2018-06-04T05:08:47.200Z,284
2018-06-04T05:09:47.779Z,284
2018-06-04T05:10:48.359Z,288
2018-06-04T05:11:48.939Z,292
2018-06-04T05:12:49.518Z,292
2018-06-04T05:13:50.095Z,292
2018-06-04T05:14:50.677Z,296
2018-06-04T05:15:51.264Z,300
2018-06-04T05:16:51.854Z,304
2018-06-04T05:17:52.432Z,304
2018-06-04T05:18:53.017Z,308
2018-06-04T05:19:53.590Z,312
2018-06-04T05:20:54.168Z,316
2018-06-04T05:21:54.746Z,320
2018-06-04T05:22:55.336Z,324
2018-06-04T05:23:55.914Z,328
2018-06-04T05:24:56.493Z,328
2018-06-04T05:25:57.073Z,332
2018-06-04T05:26:57.650Z,332
2018-06-04T05:27:58.239Z,340
2018-06-04T05:28:58.820Z,344
2018-06-04T05:29:59.397Z,344
2018-06-04T05:30:59.988Z,348
2018-06-04T05:32:00.567Z,348
2018-06-04T05:33:01.158Z,352
2018-06-04T05:34:01.736Z,356
2018-06-04T05:35:02.317Z,360
2018-06-04T05:36:02.900Z,360
2018-06-04T05:37:03.479Z,364
2018-06-04T05:38:04.064Z,364
2018-06-04T05:39:04.643Z,368
2018-06-04T05:40:05.220Z,368
2018-06-04T05:41:05.802Z,372
2018-06-04T05:42:06.390Z,372
2018-06-04T05:43:06.980Z,372
2018-06-04T05:44:07.558Z,376
2018-06-04T05:45:08.138Z,380
2018-06-04T05:46:08.718Z,380
2018-06-04T05:47:09.294Z,384
2018-06-04T05:48:09.873Z,384
2018-06-04T05:49:10.455Z,388
2018-06-04T05:50:11.033Z,388
2018-06-04T05:51:11.610Z,400
2018-06-04T05:52:12.187Z,404
2018-06-04T05:53:12.779Z,408
2018-06-04T05:54:13.359Z,412
2018-06-04T05:55:13.938Z,412
2018-06-04T05:56:14.554Z,420
2018-06-04T05:57:15.094Z,412
2018-06-04T05:58:15.672Z,420
2018-06-04T05:59:16.252Z,428
2018-06-04T06:00:16.830Z,432
2018-06-04T06:01:17.408Z,436
2018-06-04T06:02:17.986Z,444
2018-06-04T06:03:18.567Z,444
2018-06-04T06:04:19.145Z,436
2018-06-04T06:05:19.725Z,440
2018-06-04T06:06:20.306Z,452
2018-06-04T06:07:20.895Z,444
2018-06-04T06:08:21.473Z,440
2018-06-04T06:09:22.053Z,452
2018-06-04T06:10:22.631Z,428
2018-06-04T06:11:23.210Z,372
2018-06-04T06:12:23.789Z,404
2018-06-04T06:13:24.372Z,428
2018-06-04T06:14:24.961Z,424
2018-06-04T06:15:25.527Z,472
2018-06-04T06:16:26.105Z,476
2018-06-04T06:17:26.683Z,452
2018-06-04T06:18:27.267Z,444
2018-06-04T06:19:27.841Z,472
2018-06-04T06:20:28.421Z,440
2018-06-04T06:21:28.999Z,448
2018-06-04T06:22:29.575Z,444
2018-06-04T06:23:30.165Z,428
2018-06-04T06:24:30.746Z,412
2018-06-04T06:25:31.351Z,404
2018-06-04T06:26:31.903Z,420
2018-06-04T06:27:32.480Z,416
2018-06-04T06:28:33.057Z,468
2018-06-04T06:29:33.636Z,456
2018-06-04T06:30:34.214Z,460
2018-06-04T06:31:34.794Z,448
2018-06-04T06:32:35.372Z,444
2018-06-04T06:33:35.951Z,496
2018-06-04T06:34:36.541Z,544
2018-06-04T06:35:37.132Z,520
2018-06-04T06:36:37.705Z,472
2018-06-04T06:37:38.362Z,572
2018-06-04T06:38:38.885Z,548
2018-06-04T06:39:39.465Z,540
2018-06-04T06:40:40.043Z,524
2018-06-04T06:41:40.623Z,488
2018-06-04T06:42:41.205Z,456
2018-06-04T06:43:41.792Z,432
2018-06-04T06:44:42.371Z,480
2018-06-04T06:45:42.948Z,468
2018-06-04T06:46:43.526Z,460
2018-06-04T06:47:44.116Z,508
2018-06-04T06:48:44.697Z,516
2018-06-04T06:49:45.282Z,516
2018-06-04T06:50:45.859Z,572
2018-06-04T06:51:46.439Z,596
2018-06-04T06:52:47.017Z,568
2018-06-04T06:53:47.596Z,536
2018-06-04T06:54:48.184Z,532
2018-06-04T06:55:48.764Z,520
2018-06-04T06:56:49.342Z,604
2018-06-04T06:57:49.921Z,572
2018-06-04T06:58:50.501Z,552
2018-06-04T06:59:51.080Z,504
2018-06-04T07:00:51.659Z,492
2018-06-04T07:01:52.287Z,532
2018-06-04T07:02:52.819Z,548
2018-06-04T07:03:53.401Z,528
2018-06-04T07:04:53.977Z,532
2018-06-04T07:05:54.554Z,532
2018-06-04T07:06:55.135Z,536
2018-06-04T07:07:55.723Z,552
2018-06-04T07:08:56.301Z,588
2018-06-04T07:09:56.879Z,612
2018-06-04T07:10:57.458Z,572
2018-06-04T07:11:58.039Z,564
2018-06-04T07:12:58.618Z,540
2018-06-04T07:13:59.197Z,544
2018-06-04T07:14:59.775Z,580
2018-06-04T07:16:00.357Z,504
2018-06-04T07:17:00.935Z,488
2018-06-04T07:18:01.526Z,484
2018-06-04T07:19:02.107Z,524
2018-06-04T07:20:02.697Z,556
2018-06-04T07:21:03.271Z,584
2018-06-04T07:22:03.850Z,568
2018-06-04T07:23:04.427Z,584
2018-06-04T07:24:05.006Z,632
2018-06-04T07:25:05.589Z,656
2018-06-04T07:26:06.177Z,656
2018-06-04T07:27:06.756Z,648
2018-06-04T07:28:07.334Z,612
2018-06-04T07:29:07.916Z,648
2018-06-04T07:30:08.494Z,560
2018-06-04T07:31:09.075Z,616
2018-06-04T07:32:09.665Z,616
2018-06-04T07:33:10.244Z,588
2018-06-04T07:34:10.835Z,584
2018-06-04T07:35:11.424Z,640
2018-06-04T07:36:12.022Z,520
2018-06-04T07:37:12.606Z,552
2018-06-04T07:38:13.197Z,528
2018-06-04T07:39:13.776Z,544
2018-06-04T07:40:14.357Z,552
2018-06-04T07:41:14.972Z,612
2018-06-04T07:42:15.518Z,596
2018-06-04T07:43:16.098Z,624
2018-06-04T07:44:16.679Z,600
2018-06-04T07:45:17.259Z,600
2018-06-04T07:46:17.839Z,596
2018-06-04T07:47:18.430Z,552
2018-06-04T07:48:19.063Z,536
2018-06-04T07:49:19.591Z,592
2018-06-04T07:50:20.170Z,596
2018-06-04T07:51:20.748Z,592
2018-06-04T07:52:21.328Z,588
2018-06-04T07:53:21.909Z,588
2018-06-04T07:54:22.487Z,588
2018-06-04T07:55:23.067Z,588
2018-06-04T07:56:23.799Z,580
2018-06-04T07:57:24.411Z,588
2018-06-04T07:58:24.958Z,584
2018-06-04T07:59:25.550Z,588
2018-06-04T08:00:26.128Z,576
2018-06-04T08:01:26.709Z,584
2018-06-04T08:02:27.291Z,588
2018-06-04T08:03:27.868Z,592
2018-06-04T08:04:28.526Z,584
2018-06-04T08:05:29.040Z,588
2018-06-04T08:06:29.675Z,584
2018-06-04T08:07:30.201Z,584
2018-06-04T08:08:30.779Z,588
2018-06-04T08:09:31.360Z,588
2018-06-04T08:10:31.940Z,588
2018-06-04T08:11:32.521Z,592
2018-06-04T08:12:33.117Z,596
2018-06-04T08:13:33.696Z,596
2018-06-04T08:14:34.275Z,596
2018-06-04T08:15:34.858Z,600
2018-06-04T08:16:35.437Z,604
2018-06-04T08:17:36.018Z,596
2018-06-04T08:18:36.604Z,600
2018-06-04T08:19:37.177Z,608
2018-06-04T08:20:37.757Z,604
2018-06-04T08:21:38.339Z,608
2018-06-04T08:22:38.918Z,608
2018-06-04T08:23:39.499Z,604
2018-06-04T08:24:40.081Z,604
2018-06-04T08:25:40.660Z,612
2018-06-04T08:26:41.240Z,608
2018-06-04T08:27:41.821Z,608
2018-06-04T08:28:42.402Z,568
2018-06-04T08:29:42.986Z,564
2018-06-04T08:30:43.574Z,560
2018-06-04T08:31:44.154Z,548
2018-06-04T08:32:44.734Z,620
2018-06-04T08:33:45.323Z,624
2018-06-04T08:34:45.903Z,624
2018-06-04T08:35:46.485Z,624
2018-06-04T08:36:47.217Z,620
2018-06-04T08:37:47.797Z,620
2018-06-04T08:38:48.380Z,616
2018-06-04T08:39:48.960Z,624
2018-06-04T08:40:49.540Z,616
2018-06-04T08:41:50.131Z,624
2018-06-04T08:42:50.712Z,620
2018-06-04T08:43:51.292Z,612
2018-06-04T08:44:51.874Z,620
2018-06-04T08:45:52.513Z,608
2018-06-04T08:46:53.053Z,624
2018-06-04T08:47:53.645Z,612
2018-06-04T08:48:54.235Z,612
2018-06-04T08:49:54.827Z,592
2018-06-04T08:50:55.448Z,584
2018-06-04T08:51:55.996Z,576
2018-06-04T08:52:56.571Z,584
2018-06-04T08:53:57.154Z,572
2018-06-04T08:54:57.744Z,560
2018-06-04T08:55:58.325Z,540
2018-06-04T08:56:58.906Z,572
2018-06-04T08:57:59.495Z,576
2018-06-04T08:59:00.070Z,552
2018-06-04T09:00:00.648Z,596
2018-06-04T09:01:01.234Z,588
2018-06-04T09:02:01.814Z,596
2018-06-04T09:03:02.400Z,580
2018-06-04T09:04:02.977Z,612
2018-06-04T09:05:03.561Z,604
2018-06-04T09:06:04.141Z,616
2018-06-04T09:07:04.731Z,628
2018-06-04T09:08:05.314Z,628
2018-06-04T09:09:05.895Z,640
2018-06-04T09:10:06.477Z,640
2018-06-04T09:11:07.058Z,660
2018-06-04T09:12:07.638Z,644
2018-06-04T09:13:08.220Z,672
2018-06-04T09:14:08.803Z,680
2018-06-04T09:15:09.384Z,696
2018-06-04T09:16:09.975Z,704
2018-06-04T09:17:10.555Z,604
2018-06-04T09:18:11.135Z,704
2018-06-04T09:19:11.718Z,608
2018-06-04T09:20:12.301Z,640
2018-06-04T09:21:12.882Z,572
2018-06-04T09:22:13.463Z,684
2018-06-04T09:23:14.046Z,784
2018-06-04T09:24:14.627Z,800
2018-06-04T09:25:15.207Z,820
2018-06-04T09:26:15.789Z,812
2018-06-04T09:27:16.384Z,804
2018-06-04T09:28:16.962Z,612
2018-06-04T09:29:17.544Z,736
2018-06-04T09:30:18.124Z,876
2018-06-04T09:31:18.704Z,932
2018-06-04T09:32:19.344Z,956
2018-06-04T09:33:19.868Z,960
2018-06-04T09:34:20.450Z,932
2018-06-04T09:35:21.034Z,792
2018-06-04T09:36:21.614Z,784
2018-06-04T09:37:22.198Z,920
2018-06-04T09:38:22.778Z,988
2018-06-04T09:39:23.361Z,996
2018-06-04T09:40:23.986Z,924
2018-06-04T09:41:24.524Z,728
2018-06-04T09:42:25.104Z,680
2018-06-04T09:43:25.688Z,648
2018-06-04T09:44:26.269Z,636
2018-06-04T09:45:26.848Z,636
2018-06-04T09:46:27.429Z,632
2018-06-04T09:47:28.027Z,636
2018-06-04T09:48:28.604Z,680
2018-06-04T09:49:29.186Z,880
2018-06-04T09:50:29.771Z,904
2018-06-04T09:51:30.349Z,916
2018-06-04T09:52:30.931Z,904
2018-06-04T09:53:31.513Z,904
2018-06-04T09:54:32.095Z,932
2018-06-04T09:55:32.679Z,972
2018-06-04T09:56:33.256Z,980
2018-06-04T09:57:33.838Z,964
2018-06-04T09:58:34.421Z,952
2018-06-04T09:59:35.002Z,936
2018-06-04T10:00:35.585Z,928
2018-06-04T10:01:36.165Z,936
2018-06-04T10:02:36.746Z,872
2018-06-04T10:03:37.328Z,796
2018-06-04T10:04:37.946Z,860
2018-06-04T10:05:38.493Z,896
2018-06-04T10:06:39.077Z,908
2018-06-04T10:07:39.668Z,928
2018-06-04T10:08:40.260Z,948
2018-06-04T10:09:40.847Z,972
2018-06-04T10:10:41.438Z,992
2018-06-04T10:11:42.020Z,1012
2018-06-04T10:12:42.605Z,1020
2018-06-04T10:13:43.188Z,1016
2018-06-04T10:14:43.773Z,1028
2018-06-04T10:15:44.364Z,1028
2018-06-04T10:16:44.947Z,1028
2018-06-04T10:17:45.531Z,1008
2018-06-04T10:18:46.113Z,976
2018-06-04T10:19:46.699Z,948
2018-06-04T10:20:47.280Z,948
2018-06-04T10:21:47.859Z,932
2018-06-04T10:22:48.442Z,936
2018-06-04T10:23:49.025Z,1032
2018-06-04T10:24:49.609Z,1084
2018-06-04T10:25:50.192Z,1100
2018-06-04T10:26:50.774Z,980
2018-06-04T10:27:51.382Z,780
2018-06-04T10:28:51.939Z,720
2018-06-04T10:29:52.520Z,676
2018-06-04T10:30:53.101Z,652
2018-06-04T10:31:53.684Z,644
2018-06-04T10:32:54.269Z,648
2018-06-04T10:33:54.851Z,672
2018-06-04T10:34:55.441Z,796
2018-06-04T10:35:56.022Z,716
2018-06-04T10:36:56.617Z,732
2018-06-04T10:37:57.199Z,860
2018-06-04T10:38:57.793Z,968
2018-06-04T10:39:58.374Z,984
2018-06-04T10:40:58.956Z,1004
2018-06-04T10:41:59.540Z,1000
2018-06-04T10:43:00.126Z,992
2018-06-04T10:44:00.755Z,1016
2018-06-04T10:45:01.341Z,1004
2018-06-04T10:46:01.931Z,1028
2018-06-04T10:47:02.511Z,848
2018-06-04T10:48:03.093Z,996
2018-06-04T10:49:03.676Z,860
2018-06-04T10:50:04.260Z,836
2018-06-04T10:51:04.940Z,820
2018-06-04T10:52:05.521Z,844
2018-06-04T10:53:06.105Z,876
2018-06-04T10:54:06.696Z,900
2018-06-04T10:55:07.281Z,1100
2018-06-04T10:56:07.865Z,1016
2018-06-04T10:57:08.446Z,904
2018-06-04T10:58:09.027Z,760
2018-06-04T10:59:09.611Z,772
2018-06-04T11:00:10.192Z,804
2018-06-04T11:01:10.787Z,796
2018-06-04T11:02:11.366Z,760
2018-06-04T11:03:11.946Z,712
2018-06-04T11:04:12.540Z,712
2018-06-04T11:05:13.122Z,728
2018-06-04T11:06:13.705Z,772
2018-06-04T11:07:14.285Z,816
2018-06-04T11:08:14.868Z,804
2018-06-04T11:09:15.448Z,824
2018-06-04T11:10:16.030Z,840
2018-06-04T11:11:16.613Z,692
2018-06-04T11:12:17.193Z,684
2018-06-04T11:13:17.774Z,700
2018-06-04T11:14:18.357Z,748
2018-06-04T11:15:18.939Z,796
2018-06-04T11:16:19.523Z,868
2018-06-04T11:17:20.099Z,900
2018-06-04T11:18:20.680Z,828
2018-06-04T11:19:21.262Z,796
2018-06-04T11:20:21.844Z,768
2018-06-04T11:21:22.427Z,796
2018-06-04T11:22:23.007Z,820
2018-06-04T11:23:23.590Z,836
2018-06-04T11:24:24.170Z,856
2018-06-04T11:25:24.757Z,880
2018-06-04T11:26:25.333Z,908
2018-06-04T11:27:25.914Z,936
2018-06-04T11:28:26.497Z,1068
2018-06-04T11:29:27.080Z,996
2018-06-04T11:30:27.726Z,1008
2018-06-04T11:31:28.246Z,1040
2018-06-04T11:32:28.829Z,1116
2018-06-04T11:33:29.414Z,1108
2018-06-04T11:34:29.993Z,1120
2018-06-04T11:35:30.577Z,1148
2018-06-04T11:36:31.160Z,1180
2018-06-04T11:37:31.796Z,1180
2018-06-04T11:38:32.324Z,1164
2018-06-04T11:39:32.908Z,1096
2018-06-04T11:40:33.489Z,1076
2018-06-04T11:41:34.070Z,1112
2018-06-04T11:42:34.654Z,1172
2018-06-04T11:43:35.236Z,1200
2018-06-04T11:44:35.828Z,896
2018-06-04T11:45:36.413Z,768
2018-06-04T11:46:36.992Z,860
2018-06-04T11:47:37.575Z,1104
2018-06-04T11:48:38.159Z,996
2018-06-04T11:49:38.760Z,1156
2018-06-04T11:50:39.350Z,1140
2018-06-04T11:51:39.936Z,840
2018-06-04T11:52:40.519Z,892
2018-06-04T11:53:41.104Z,1132
2018-06-04T11:54:41.683Z,1140
2018-06-04T11:55:42.266Z,1132
2018-06-04T11:56:42.875Z,1116
2018-06-04T11:57:43.444Z,1108
2018-06-04T11:58:44.078Z,1120
2018-06-04T11:59:44.614Z,1148
2018-06-04T12:00:45.221Z,1148
2018-06-04T12:01:45.818Z,1132
2018-06-04T12:02:46.358Z,1128
2018-06-04T12:03:46.940Z,1128
2018-06-04T12:04:47.523Z,1132
2018-06-04T12:05:48.119Z,1108
2018-06-04T12:06:48.704Z,1136
2018-06-04T12:07:49.297Z,1172
2018-06-04T12:08:49.879Z,1160
2018-06-04T12:09:50.462Z,1244
2018-06-04T12:10:51.072Z,1120
2018-06-04T12:11:51.665Z,1020
2018-06-04T12:12:52.245Z,968
2018-06-04T12:13:52.825Z,972
2018-06-04T12:14:53.409Z,960
2018-06-04T12:15:53.990Z,968
2018-06-04T12:16:54.584Z,964
2018-06-04T12:17:55.170Z,952
2018-06-04T12:18:55.758Z,972
2018-06-04T12:19:56.343Z,824
2018-06-04T12:20:56.935Z,832
2018-06-04T12:21:57.528Z,844
2018-06-04T12:22:58.109Z,960
2018-06-04T12:23:58.693Z,832
2018-06-04T12:24:59.275Z,868
2018-06-04T12:25:59.858Z,1120
2018-06-04T12:27:00.441Z,964
2018-06-04T12:28:01.024Z,1236
2018-06-04T12:29:01.606Z,1288
2018-06-04T12:30:02.192Z,1336
2018-06-04T12:31:02.772Z,1292
2018-06-04T12:32:03.360Z,1248
2018-06-04T12:33:03.947Z,912
2018-06-04T12:34:04.528Z,908
2018-06-04T12:35:05.110Z,948
2018-06-04T12:36:05.694Z,1080
2018-06-04T12:37:06.275Z,1344
2018-06-04T12:38:06.859Z,1372
2018-06-04T12:39:07.443Z,1420
2018-06-04T12:40:08.024Z,1452
2018-06-04T12:41:08.606Z,1472
2018-06-04T12:42:09.189Z,1476
2018-06-04T12:43:09.775Z,1432
2018-06-04T12:44:10.359Z,1324
2018-06-04T12:45:10.940Z,908
2018-06-04T12:46:11.520Z,896
2018-06-04T12:47:12.102Z,912
2018-06-04T12:48:12.697Z,940
2018-06-04T12:49:13.278Z,960
2018-06-04T12:50:13.860Z,976
2018-06-04T12:51:14.454Z,1044
2018-06-04T12:52:15.039Z,1192
2018-06-04T12:53:15.620Z,1128
2018-06-04T12:54:16.204Z,1180
2018-06-04T12:55:16.788Z,1252
2018-06-04T12:56:17.371Z,1200
2018-06-04T12:57:17.955Z,1236
2018-06-04T12:58:18.541Z,1360
2018-06-04T12:59:19.120Z,1408
2018-06-04T13:00:19.713Z,1356
2018-06-04T13:01:20.298Z,1348
2018-06-04T13:02:20.881Z,1344
2018-06-04T13:03:21.466Z,1356
2018-06-04T13:04:22.049Z,1376
2018-06-04T13:05:22.631Z,1324
2018-06-04T13:06:23.215Z,1116
2018-06-04T13:07:23.807Z,1004
2018-06-04T13:08:24.392Z,1360
2018-06-04T13:09:24.975Z,1372
2018-06-04T13:10:25.559Z,1380
2018-06-04T13:11:26.141Z,1404
2018-06-04T13:12:26.725Z,1412
2018-06-04T13:13:27.309Z,1404
2018-06-04T13:14:27.892Z,1424
2018-06-04T13:15:28.474Z,1424
2018-06-04T13:16:29.057Z,1432
2018-06-04T13:17:29.683Z,1448
2018-06-04T13:18:30.223Z,1440
2018-06-04T13:19:30.808Z,1488
2018-06-04T13:20:31.387Z,1528
2018-06-04T13:21:31.983Z,1536
2018-06-04T13:22:32.555Z,1576
2018-06-04T13:23:33.137Z,1572
2018-06-04T13:24:33.724Z,1568
2018-06-04T13:25:34.305Z,1532
2018-06-04T13:26:34.891Z,1532
2018-06-04T13:27:35.491Z,1540
2018-06-04T13:28:36.056Z,1516
2018-06-04T13:29:36.637Z,1452
2018-06-04T13:30:37.219Z,1464
2018-06-04T13:31:37.805Z,1352
2018-06-04T13:32:38.386Z,1428
2018-06-04T13:33:38.987Z,1468
2018-06-04T13:34:39.553Z,1468
2018-06-04T13:35:40.136Z,1500
2018-06-04T13:36:40.730Z,1532
2018-06-04T13:37:41.314Z,1484
2018-06-04T13:38:41.899Z,1460
2018-06-04T13:39:42.491Z,1496
2018-06-04T13:40:43.073Z,1128
2018-06-04T13:41:43.658Z,1272
2018-06-04T13:42:44.241Z,1548
2018-06-04T13:43:44.836Z,1584
2018-06-04T13:44:45.420Z,1588
2018-06-04T13:45:46.014Z,1612
2018-06-04T13:46:46.608Z,1600
2018-06-04T13:47:47.193Z,1532
2018-06-04T13:48:47.784Z,1428
2018-06-04T13:49:48.380Z,1512
2018-06-04T13:50:48.964Z,1524
2018-06-04T13:51:49.548Z,1536
2018-06-04T13:52:50.132Z,1580
2018-06-04T13:53:50.726Z,1600
2018-06-04T13:54:51.310Z,1612
2018-06-04T13:55:51.907Z,1644
2018-06-04T13:56:52.498Z,1668
2018-06-04T13:57:53.082Z,1476
2018-06-04T13:58:53.662Z,1520
2018-06-04T13:59:54.247Z,1164
2018-06-04T14:00:54.841Z,1624
2018-06-04T14:01:55.425Z,1652
2018-06-04T14:02:56.009Z,1700
2018-06-04T14:03:56.604Z,1704